sensor_id;sensor_type;location;lat;lon;timestamp;temperature;humidity
18191;DHT22;47004;51.366;12.348;2023-04-29T00:00:11;10.90;99.90
18191;DHT22;47004;51.366;12.348;2023-04-29T00:02:15;10.90;99.90
18191;DHT22;47004;51.366;12.348;2023-04-29T00:04:16;10.80;99.90
18191;DHT22;47004;51.366;12.348;2023-04-29T00:06:19;10.90;99.90
18191;DHT22;47004;51.366;12.348;2023-04-29T00:08:21;10.80;99.90
18191;DHT22;47004;51.366;12.348;2023-04-29T00:10:22;10.80;99.90
18191;DHT22;47004;51.366;12.348;2023-04-29T00:12:24;10.80;99.90
18191;DHT22;47004;51.366;12.348;2023-04-29T00:14:27;10.80;99.90
18191;DHT22;47004;51.366;12.348;2023-04-29T00:16:29;10.80;99.90
18191;DHT22;47004;51.366;12.348;2023-04-29T00:18:32;10.80;99.90
18191;DHT22;47004;51.366;12.348;2023-04-29T00:20:34;10.80;99.90
18191;DHT22;47004;51.366;12.348;2023-04-29T00:22:37;10.80;99.90
18191;DHT22;47004;51.366;12.348;2023-04-29T00:24:39;10.80;99.90
18191;DHT22;47004;51.366;12.348;2023-04-29T00:26:41;10.80;99.90
18191;DHT22;47004;51.366;12.348;2023-04-29T00:28:43;10.80;99.90
18191;DHT22;47004;51.366;12.348;2023-04-29T00:30:45;10.80;99.90
18191;DHT22;47004;51.366;12.348;2023-04-29T00:32:49;10.80;99.90
18191;DHT22;47004;51.366;12.348;2023-04-29T00:34:52;10.90;99.90
18191;DHT22;47004;51.366;12.348;2023-04-29T00:36:54;10.90;99.90
18191;DHT22;47004;51.366;12.348;2023-04-29T00:38:56;10.90;99.90
18191;DHT22;47004;51.366;12.348;2023-04-29T00:40:59;10.90;99.90
18191;DHT22;47004;51.366;12.348;2023-04-29T00:43:01;10.90;99.90
18191;DHT22;47004;51.366;12.348;2023-04-29T00:45:04;10.90;99.90
18191;DHT22;47004;51.366;12.348;2023-04-29T00:47:06;10.90;99.90
18191;DHT22;47004;51.366;12.348;2023-04-29T00:49:12;10.90;99.90
18191;DHT22;47004;51.366;12.348;2023-04-29T00:51:18;10.90;99.90
18191;DHT22;47004;51.366;12.348;2023-04-29T00:53:20;11.00;99.90
18191;DHT22;47004;51.366;12.348;2023-04-29T00:55:23;10.90;99.90
18191;DHT22;47004;51.366;12.348;2023-04-29T00:57:26;10.90;99.90
18191;DHT22;47004;51.366;12.348;2023-04-29T00:59:28;11.00;99.90
18191;DHT22;47004;51.366;12.348;2023-04-29T01:01:31;11.00;99.90
18191;DHT22;47004;51.366;12.348;2023-04-29T01:03:34;11.00;99.90
18191;DHT22;47004;51.366;12.348;2023-04-29T01:05:36;11.00;99.90
18191;DHT22;47004;51.366;12.348;2023-04-29T01:07:44;11.00;99.90
18191;DHT22;47004;51.366;12.348;2023-04-29T01:09:54;11.00;99.90
18191;DHT22;47004;51.366;12.348;2023-04-29T01:12:07;11.10;99.90
18191;DHT22;47004;51.366;12.348;2023-04-29T01:14:12;11.00;99.90
18191;DHT22;47004;51.366;12.348;2023-04-29T01:16:20;11.10;99.90
18191;DHT22;47004;51.366;12.348;2023-04-29T01:18:26;11.00;99.90
18191;DHT22;47004;51.366;12.348;2023-04-29T01:20:30;11.00;99.90
18191;DHT22;47004;51.366;12.348;2023-04-29T01:22:32;11.00;99.90
18191;DHT22;47004;51.366;12.348;2023-04-29T01:24:36;11.10;99.90
18191;DHT22;47004;51.366;12.348;2023-04-29T01:26:38;11.10;99.90
18191;DHT22;47004;51.366;12.348;2023-04-29T01:28:47;11.10;99.90
18191;DHT22;47004;51.366;12.348;2023-04-29T01:30:55;11.10;99.90
18191;DHT22;47004;51.366;12.348;2023-04-29T01:33:07;11.10;99.90
18191;DHT22;47004;51.366;12.348;2023-04-29T01:35:24;11.00;99.90
18191;DHT22;47004;51.366;12.348;2023-04-29T01:37:37;11.10;99.90
18191;DHT22;47004;51.366;12.348;2023-04-29T01:39:49;11.10;99.90
18191;DHT22;47004;51.366;12.348;2023-04-29T01:44:17;11.00;99.90
18191;DHT22;47004;51.366;12.348;2023-04-29T01:46:20;11.10;99.90
18191;DHT22;47004;51.366;12.348;2023-04-29T01:48:23;11.10;99.90
18191;DHT22;47004;51.366;12.348;2023-04-29T01:50:25;11.00;99.90
18191;DHT22;47004;51.366;12.348;2023-04-29T01:52:27;11.00;99.90
18191;DHT22;47004;51.366;12.348;2023-04-29T01:54:29;11.10;99.90
18191;DHT22;47004;51.366;12.348;2023-04-29T01:56:32;11.00;99.90
18191;DHT22;47004;51.366;12.348;2023-04-29T01:58:34;11.00;99.90
18191;DHT22;47004;51.366;12.348;2023-04-29T02:00:36;11.10;99.90
18191;DHT22;47004;51.366;12.348;2023-04-29T02:02:38;11.10;99.90
18191;DHT22;47004;51.366;12.348;2023-04-29T02:04:40;11.10;99.90
18191;DHT22;47004;51.366;12.348;2023-04-29T02:06:42;11.10;99.90
18191;DHT22;47004;51.366;12.348;2023-04-29T02:08:44;11.10;99.90
18191;DHT22;47004;51.366;12.348;2023-04-29T02:10:56;11.10;99.90
18191;DHT22;47004;51.366;12.348;2023-04-29T02:12:59;11.00;99.90
18191;DHT22;47004;51.366;12.348;2023-04-29T02:15:02;11.10;99.90
18191;DHT22;47004;51.366;12.348;2023-04-29T02:17:04;11.10;99.90
18191;DHT22;47004;51.366;12.348;2023-04-29T02:19:06;11.10;99.90
18191;DHT22;47004;51.366;12.348;2023-04-29T02:21:08;11.10;99.90
18191;DHT22;47004;51.366;12.348;2023-04-29T02:23:10;11.10;99.90
18191;DHT22;47004;51.366;12.348;2023-04-29T02:25:12;11.10;99.90
18191;DHT22;47004;51.366;12.348;2023-04-29T02:27:14;11.10;99.90
18191;DHT22;47004;51.366;12.348;2023-04-29T02:29:17;11.10;99.90
18191;DHT22;47004;51.366;12.348;2023-04-29T02:31:19;11.10;99.90
18191;DHT22;47004;51.366;12.348;2023-04-29T02:33:21;11.10;99.90
18191;DHT22;47004;51.366;12.348;2023-04-29T02:35:23;11.10;99.90
18191;DHT22;47004;51.366;12.348;2023-04-29T02:37:25;11.10;99.90
18191;DHT22;47004;51.366;12.348;2023-04-29T02:39:27;11.10;99.90
18191;DHT22;47004;51.366;12.348;2023-04-29T02:41:29;11.10;99.90
18191;DHT22;47004;51.366;12.348;2023-04-29T02:43:30;11.10;99.90
18191;DHT22;47004;51.366;12.348;2023-04-29T02:45:34;11.10;99.90
18191;DHT22;47004;51.366;12.348;2023-04-29T02:47:35;11.10;99.90
18191;DHT22;47004;51.366;12.348;2023-04-29T02:49:37;11.10;99.90
18191;DHT22;47004;51.366;12.348;2023-04-29T02:51:39;11.10;99.90
18191;DHT22;47004;51.366;12.348;2023-04-29T02:53:44;11.10;99.90
18191;DHT22;47004;51.366;12.348;2023-04-29T02:55:46;11.10;99.90
18191;DHT22;47004;51.366;12.348;2023-04-29T02:57:48;11.10;99.90
18191;DHT22;47004;51.366;12.348;2023-04-29T02:59:50;11.10;99.90
18191;DHT22;47004;51.366;12.348;2023-04-29T03:01:53;11.10;99.90
18191;DHT22;47004;51.366;12.348;2023-04-29T03:03:55;11.10;99.90
18191;DHT22;47004;51.366;12.348;2023-04-29T03:05:57;11.10;99.90
18191;DHT22;47004;51.366;12.348;2023-04-29T03:07:59;11.10;99.90
18191;DHT22;47004;51.366;12.348;2023-04-29T03:10:01;11.10;99.90
18191;DHT22;47004;51.366;12.348;2023-04-29T03:12:03;11.10;99.90
18191;DHT22;47004;51.366;12.348;2023-04-29T03:14:05;11.10;99.90
18191;DHT22;47004;51.366;12.348;2023-04-29T03:16:07;11.10;99.90
18191;DHT22;47004;51.366;12.348;2023-04-29T03:18:11;11.10;99.90
18191;DHT22;47004;51.366;12.348;2023-04-29T03:20:13;11.10;99.90
18191;DHT22;47004;51.366;12.348;2023-04-29T03:22:15;11.10;99.90
18191;DHT22;47004;51.366;12.348;2023-04-29T03:24:17;11.10;99.90
18191;DHT22;47004;51.366;12.348;2023-04-29T03:26:19;11.10;99.90
18191;DHT22;47004;51.366;12.348;2023-04-29T03:28:22;11.10;99.90
18191;DHT22;47004;51.366;12.348;2023-04-29T03:30:24;11.00;99.90
18191;DHT22;47004;51.366;12.348;2023-04-29T03:32:26;11.10;99.90
18191;DHT22;47004;51.366;12.348;2023-04-29T03:34:29;11.00;99.90
18191;DHT22;47004;51.366;12.348;2023-04-29T03:36:31;11.00;99.90
18191;DHT22;47004;51.366;12.348;2023-04-29T03:38:33;11.00;99.90
18191;DHT22;47004;51.366;12.348;2023-04-29T03:40:35;11.00;99.90
18191;DHT22;47004;51.366;12.348;2023-04-29T03:42:37;11.00;99.90
18191;DHT22;47004;51.366;12.348;2023-04-29T03:44:39;11.00;99.90
18191;DHT22;47004;51.366;12.348;2023-04-29T03:46:41;11.00;99.90
18191;DHT22;47004;51.366;12.348;2023-04-29T03:48:43;11.00;99.90
18191;DHT22;47004;51.366;12.348;2023-04-29T03:50:46;11.00;99.90
18191;DHT22;47004;51.366;12.348;2023-04-29T03:52:48;11.00;99.90
18191;DHT22;47004;51.366;12.348;2023-04-29T03:54:51;11.00;99.90
18191;DHT22;47004;51.366;12.348;2023-04-29T03:56:53;11.00;99.90
18191;DHT22;47004;51.366;12.348;2023-04-29T03:58:55;11.00;99.90
18191;DHT22;47004;51.366;12.348;2023-04-29T04:00:57;11.00;99.90
18191;DHT22;47004;51.366;12.348;2023-04-29T04:02:59;11.00;99.90
18191;DHT22;47004;51.366;12.348;2023-04-29T04:05:01;11.00;99.90
18191;DHT22;47004;51.366;12.348;2023-04-29T04:07:04;11.00;99.90
18191;DHT22;47004;51.366;12.348;2023-04-29T04:09:06;11.00;99.90
18191;DHT22;47004;51.366;12.348;2023-04-29T04:11:08;11.00;99.90
18191;DHT22;47004;51.366;12.348;2023-04-29T04:13:10;11.00;99.90
18191;DHT22;47004;51.366;12.348;2023-04-29T04:15:12;11.00;99.90
18191;DHT22;47004;51.366;12.348;2023-04-29T04:17:14;11.00;99.90
18191;DHT22;47004;51.366;12.348;2023-04-29T04:19:16;11.00;99.90
18191;DHT22;47004;51.366;12.348;2023-04-29T04:21:18;11.00;99.90
18191;DHT22;47004;51.366;12.348;2023-04-29T04:23:22;11.00;99.90
18191;DHT22;47004;51.366;12.348;2023-04-29T04:25:24;11.10;99.90
18191;DHT22;47004;51.366;12.348;2023-04-29T04:27:26;11.10;99.90
18191;DHT22;47004;51.366;12.348;2023-04-29T04:29:27;11.10;99.90
18191;DHT22;47004;51.366;12.348;2023-04-29T04:31:29;11.10;99.90
18191;DHT22;47004;51.366;12.348;2023-04-29T04:33:31;11.10;99.90
18191;DHT22;47004;51.366;12.348;2023-04-29T04:35:34;11.10;99.90
18191;DHT22;47004;51.366;12.348;2023-04-29T04:37:35;11.10;99.90
18191;DHT22;47004;51.366;12.348;2023-04-29T04:39:39;11.20;99.90
18191;DHT22;47004;51.366;12.348;2023-04-29T04:41:41;11.10;99.90
18191;DHT22;47004;51.366;12.348;2023-04-29T04:43:43;11.10;99.90
18191;DHT22;47004;51.366;12.348;2023-04-29T04:45:45;11.20;99.90
18191;DHT22;47004;51.366;12.348;2023-04-29T04:47:47;11.20;99.90
18191;DHT22;47004;51.366;12.348;2023-04-29T04:49:49;11.20;99.90
18191;DHT22;47004;51.366;12.348;2023-04-29T04:51:52;11.20;99.90
18191;DHT22;47004;51.366;12.348;2023-04-29T04:53:54;11.20;99.90
18191;DHT22;47004;51.366;12.348;2023-04-29T04:56:01;11.20;99.90
18191;DHT22;47004;51.366;12.348;2023-04-29T04:58:03;11.20;99.90
18191;DHT22;47004;51.366;12.348;2023-04-29T05:00:06;11.20;99.90
18191;DHT22;47004;51.366;12.348;2023-04-29T05:02:08;11.30;99.90
18191;DHT22;47004;51.366;12.348;2023-04-29T05:04:10;11.30;99.90
18191;DHT22;47004;51.366;12.348;2023-04-29T05:06:12;11.30;99.90
18191;DHT22;47004;51.366;12.348;2023-04-29T05:08:14;11.30;99.90
18191;DHT22;47004;51.366;12.348;2023-04-29T05:10:16;11.30;99.90
18191;DHT22;47004;51.366;12.348;2023-04-29T05:12:19;11.30;99.90
18191;DHT22;47004;51.366;12.348;2023-04-29T05:14:21;11.30;99.90
18191;DHT22;47004;51.366;12.348;2023-04-29T05:16:23;11.30;99.90
18191;DHT22;47004;51.366;12.348;2023-04-29T05:18:25;11.30;99.90
18191;DHT22;47004;51.366;12.348;2023-04-29T05:20:27;11.30;99.90
18191;DHT22;47004;51.366;12.348;2023-04-29T05:22:29;11.30;99.90
18191;DHT22;47004;51.366;12.348;2023-04-29T05:24:31;11.30;99.90
18191;DHT22;47004;51.366;12.348;2023-04-29T05:26:32;11.30;99.90
18191;DHT22;47004;51.366;12.348;2023-04-29T05:28:36;11.40;99.90
18191;DHT22;47004;51.366;12.348;2023-04-29T05:30:38;11.30;99.90
18191;DHT22;47004;51.366;12.348;2023-04-29T05:32:39;11.40;99.90
18191;DHT22;47004;51.366;12.348;2023-04-29T05:34:41;11.40;99.90
18191;DHT22;47004;51.366;12.348;2023-04-29T05:36:44;11.40;99.90
18191;DHT22;47004;51.366;12.348;2023-04-29T05:38:46;11.40;99.90
18191;DHT22;47004;51.366;12.348;2023-04-29T05:40:48;11.50;99.90
18191;DHT22;47004;51.366;12.348;2023-04-29T05:42:52;11.50;99.90
18191;DHT22;47004;51.366;12.348;2023-04-29T05:44:57;11.50;99.90
18191;DHT22;47004;51.366;12.348;2023-04-29T05:46:59;11.60;99.90
18191;DHT22;47004;51.366;12.348;2023-04-29T05:49:01;11.60;99.90
18191;DHT22;47004;51.366;12.348;2023-04-29T05:51:03;11.60;99.90
18191;DHT22;47004;51.366;12.348;2023-04-29T05:53:05;11.70;99.90
18191;DHT22;47004;51.366;12.348;2023-04-29T05:55:08;11.70;99.90
18191;DHT22;47004;51.366;12.348;2023-04-29T05:57:10;11.70;99.90
18191;DHT22;47004;51.366;12.348;2023-04-29T05:59:12;11.70;99.90
18191;DHT22;47004;51.366;12.348;2023-04-29T06:01:15;11.70;99.90
18191;DHT22;47004;51.366;12.348;2023-04-29T06:03:17;11.80;99.90
18191;DHT22;47004;51.366;12.348;2023-04-29T06:05:19;11.80;99.90
18191;DHT22;47004;51.366;12.348;2023-04-29T06:07:22;11.80;99.90
18191;DHT22;47004;51.366;12.348;2023-04-29T06:09:24;11.80;99.90
18191;DHT22;47004;51.366;12.348;2023-04-29T06:11:26;11.80;99.90
18191;DHT22;47004;51.366;12.348;2023-04-29T06:13:28;11.90;99.90
18191;DHT22;47004;51.366;12.348;2023-04-29T06:15:30;11.90;99.90
18191;DHT22;47004;51.366;12.348;2023-04-29T06:17:34;11.90;99.90
18191;DHT22;47004;51.366;12.348;2023-04-29T06:19:37;12.00;99.90
18191;DHT22;47004;51.366;12.348;2023-04-29T06:21:39;12.00;99.90
18191;DHT22;47004;51.366;12.348;2023-04-29T06:23:41;12.00;99.90
18191;DHT22;47004;51.366;12.348;2023-04-29T06:25:43;12.00;99.90
18191;DHT22;47004;51.366;12.348;2023-04-29T06:27:45;12.00;99.90
18191;DHT22;47004;51.366;12.348;2023-04-29T06:29:48;12.00;99.90
18191;DHT22;47004;51.366;12.348;2023-04-29T06:31:50;12.10;99.90
18191;DHT22;47004;51.366;12.348;2023-04-29T06:33:54;12.10;99.90
18191;DHT22;47004;51.366;12.348;2023-04-29T06:35:56;12.10;99.90
18191;DHT22;47004;51.366;12.348;2023-04-29T06:37:58;12.00;99.90
18191;DHT22;47004;51.366;12.348;2023-04-29T06:40:00;12.00;99.90
18191;DHT22;47004;51.366;12.348;2023-04-29T06:42:01;11.90;99.90
18191;DHT22;47004;51.366;12.348;2023-04-29T06:44:03;11.90;99.90
18191;DHT22;47004;51.366;12.348;2023-04-29T06:46:05;11.80;99.90
18191;DHT22;47004;51.366;12.348;2023-04-29T06:48:08;11.80;99.90
18191;DHT22;47004;51.366;12.348;2023-04-29T06:50:11;11.80;99.90
18191;DHT22;47004;51.366;12.348;2023-04-29T06:52:13;11.80;99.90
18191;DHT22;47004;51.366;12.348;2023-04-29T06:54:15;11.80;99.90
18191;DHT22;47004;51.366;12.348;2023-04-29T06:56:17;11.80;99.90
18191;DHT22;47004;51.366;12.348;2023-04-29T06:58:19;11.80;99.90
18191;DHT22;47004;51.366;12.348;2023-04-29T07:00:21;11.80;99.90
18191;DHT22;47004;51.366;12.348;2023-04-29T07:02:23;11.70;99.90
18191;DHT22;47004;51.366;12.348;2023-04-29T07:04:25;11.80;99.90
18191;DHT22;47004;51.366;12.348;2023-04-29T07:06:28;11.70;99.90
18191;DHT22;47004;51.366;12.348;2023-04-29T07:08:31;11.80;99.90
18191;DHT22;47004;51.366;12.348;2023-04-29T07:10:33;11.70;99.90
18191;DHT22;47004;51.366;12.348;2023-04-29T07:12:35;11.70;99.90
18191;DHT22;47004;51.366;12.348;2023-04-29T07:14:37;11.70;99.90
18191;DHT22;47004;51.366;12.348;2023-04-29T07:16:40;11.70;99.90
18191;DHT22;47004;51.366;12.348;2023-04-29T07:18:42;11.70;99.90
18191;DHT22;47004;51.366;12.348;2023-04-29T07:20:44;11.70;99.90
18191;DHT22;47004;51.366;12.348;2023-04-29T07:22:48;11.70;99.90
18191;DHT22;47004;51.366;12.348;2023-04-29T07:24:52;11.70;99.90
18191;DHT22;47004;51.366;12.348;2023-04-29T07:26:54;11.70;99.90
18191;DHT22;47004;51.366;12.348;2023-04-29T07:28:56;11.70;99.90
18191;DHT22;47004;51.366;12.348;2023-04-29T07:30:58;11.70;99.90
18191;DHT22;47004;51.366;12.348;2023-04-29T07:33:00;11.70;99.90
18191;DHT22;47004;51.366;12.348;2023-04-29T07:35:04;11.70;99.90
18191;DHT22;47004;51.366;12.348;2023-04-29T07:37:09;11.70;99.90
18191;DHT22;47004;51.366;12.348;2023-04-29T07:39:12;11.70;99.90
18191;DHT22;47004;51.366;12.348;2023-04-29T07:41:15;11.70;99.90
18191;DHT22;47004;51.366;12.348;2023-04-29T07:43:17;11.60;99.90
18191;DHT22;47004;51.366;12.348;2023-04-29T07:45:18;11.70;99.90
18191;DHT22;47004;51.366;12.348;2023-04-29T07:47:20;11.70;99.90
18191;DHT22;47004;51.366;12.348;2023-04-29T07:49:22;11.70;99.90
18191;DHT22;47004;51.366;12.348;2023-04-29T07:51:31;11.70;99.90
18191;DHT22;47004;51.366;12.348;2023-04-29T07:53:33;11.70;99.90
18191;DHT22;47004;51.366;12.348;2023-04-29T07:55:37;11.80;99.90
18191;DHT22;47004;51.366;12.348;2023-04-29T07:57:39;11.80;99.90
18191;DHT22;47004;51.366;12.348;2023-04-29T07:59:41;11.80;99.90
18191;DHT22;47004;51.366;12.348;2023-04-29T08:01:43;11.80;99.90
18191;DHT22;47004;51.366;12.348;2023-04-29T08:03:45;11.80;99.90
18191;DHT22;47004;51.366;12.348;2023-04-29T08:05:47;11.80;99.90
18191;DHT22;47004;51.366;12.348;2023-04-29T08:07:50;11.80;99.90
18191;DHT22;47004;51.366;12.348;2023-04-29T08:09:52;11.80;99.90
18191;DHT22;47004;51.366;12.348;2023-04-29T08:11:58;11.90;99.90
18191;DHT22;47004;51.366;12.348;2023-04-29T08:14:01;11.90;99.90
18191;DHT22;47004;51.366;12.348;2023-04-29T08:16:03;11.90;99.90
18191;DHT22;47004;51.366;12.348;2023-04-29T08:18:05;11.90;99.90
18191;DHT22;47004;51.366;12.348;2023-04-29T08:20:07;11.80;99.90
18191;DHT22;47004;51.366;12.348;2023-04-29T08:22:09;11.80;99.90
18191;DHT22;47004;51.366;12.348;2023-04-29T08:24:13;11.80;99.90
18191;DHT22;47004;51.366;12.348;2023-04-29T08:26:15;11.70;99.90
18191;DHT22;47004;51.366;12.348;2023-04-29T08:28:19;11.70;99.90
18191;DHT22;47004;51.366;12.348;2023-04-29T08:30:21;11.70;99.90
18191;DHT22;47004;51.366;12.348;2023-04-29T08:32:23;11.70;99.90
18191;DHT22;47004;51.366;12.348;2023-04-29T08:34:25;11.70;99.90
18191;DHT22;47004;51.366;12.348;2023-04-29T08:36:27;11.70;99.90
18191;DHT22;47004;51.366;12.348;2023-04-29T08:38:29;11.80;99.90
18191;DHT22;47004;51.366;12.348;2023-04-29T08:40:33;11.80;99.90
18191;DHT22;47004;51.366;12.348;2023-04-29T08:42:36;11.90;99.90
18191;DHT22;47004;51.366;12.348;2023-04-29T08:44:40;11.90;99.90
18191;DHT22;47004;51.366;12.348;2023-04-29T08:46:43;12.00;99.90
18191;DHT22;47004;51.366;12.348;2023-04-29T08:48:46;12.10;99.90
18191;DHT22;47004;51.366;12.348;2023-04-29T08:50:48;12.10;99.90
18191;DHT22;47004;51.366;12.348;2023-04-29T08:52:50;12.00;99.90
18191;DHT22;47004;51.366;12.348;2023-04-29T08:54:52;11.90;99.90
18191;DHT22;47004;51.366;12.348;2023-04-29T08:56:54;11.90;99.90
18191;DHT22;47004;51.366;12.348;2023-04-29T08:58:57;11.90;99.90
18191;DHT22;47004;51.366;12.348;2023-04-29T09:01:01;11.80;99.90
18191;DHT22;47004;51.366;12.348;2023-04-29T09:03:11;11.80;99.90
18191;DHT22;47004;51.366;12.348;2023-04-29T09:05:14;11.70;99.90
18191;DHT22;47004;51.366;12.348;2023-04-29T09:07:16;11.70;99.90
18191;DHT22;47004;51.366;12.348;2023-04-29T09:09:18;11.80;99.90
18191;DHT22;47004;51.366;12.348;2023-04-29T09:11:22;11.70;99.90
18191;DHT22;47004;51.366;12.348;2023-04-29T09:13:25;11.80;99.90
18191;DHT22;47004;51.366;12.348;2023-04-29T09:15:27;11.90;99.90
18191;DHT22;47004;51.366;12.348;2023-04-29T09:17:41;11.80;99.90
18191;DHT22;47004;51.366;12.348;2023-04-29T09:19:44;11.80;99.90
18191;DHT22;47004;51.366;12.348;2023-04-29T09:21:53;11.80;99.90
18191;DHT22;47004;51.366;12.348;2023-04-29T09:23:56;11.80;99.90
18191;DHT22;47004;51.366;12.348;2023-04-29T09:25:58;11.80;99.90
18191;DHT22;47004;51.366;12.348;2023-04-29T09:28:13;11.80;99.90
18191;DHT22;47004;51.366;12.348;2023-04-29T09:30:16;11.80;99.90
18191;DHT22;47004;51.366;12.348;2023-04-29T09:32:19;11.70;99.90
18191;DHT22;47004;51.366;12.348;2023-04-29T09:34:31;11.70;99.90
18191;DHT22;47004;51.366;12.348;2023-04-29T09:36:37;11.70;99.90
18191;DHT22;47004;51.366;12.348;2023-04-29T09:38:52;11.70;99.90
18191;DHT22;47004;51.366;12.348;2023-04-29T09:40:54;11.80;99.90
18191;DHT22;47004;51.366;12.348;2023-04-29T09:42:57;11.80;99.90
18191;DHT22;47004;51.366;12.348;2023-04-29T09:44:59;11.90;99.90
18191;DHT22;47004;51.366;12.348;2023-04-29T09:47:02;12.00;99.90
18191;DHT22;47004;51.366;12.348;2023-04-29T09:49:21;12.10;99.90
18191;DHT22;47004;51.366;12.348;2023-04-29T09:51:25;12.00;99.90
18191;DHT22;47004;51.366;12.348;2023-04-29T09:53:29;12.00;99.90
18191;DHT22;47004;51.366;12.348;2023-04-29T09:55:31;12.00;99.90
18191;DHT22;47004;51.366;12.348;2023-04-29T09:57:38;12.00;99.90
18191;DHT22;47004;51.366;12.348;2023-04-29T09:59:41;12.00;99.90
18191;DHT22;47004;51.366;12.348;2023-04-29T10:01:44;11.90;99.90
18191;DHT22;47004;51.366;12.348;2023-04-29T10:03:48;11.90;99.90
18191;DHT22;47004;51.366;12.348;2023-04-29T10:05:50;11.90;99.90
18191;DHT22;47004;51.366;12.348;2023-04-29T10:07:55;11.90;99.90
18191;DHT22;47004;51.366;12.348;2023-04-29T10:09:58;11.90;99.90
18191;DHT22;47004;51.366;12.348;2023-04-29T10:12:00;11.90;99.90
18191;DHT22;47004;51.366;12.348;2023-04-29T10:14:04;11.90;99.90
18191;DHT22;47004;51.366;12.348;2023-04-29T10:16:18;11.80;99.90
18191;DHT22;47004;51.366;12.348;2023-04-29T10:18:28;11.80;99.90
18191;DHT22;47004;51.366;12.348;2023-04-29T10:20:32;11.70;99.90
18191;DHT22;47004;51.366;12.348;2023-04-29T10:22:40;11.70;99.90
18191;DHT22;47004;51.366;12.348;2023-04-29T10:24:47;11.70;99.90
18191;DHT22;47004;51.366;12.348;2023-04-29T10:26:50;11.70;99.90
18191;DHT22;47004;51.366;12.348;2023-04-29T10:28:54;11.70;99.90
18191;DHT22;47004;51.366;12.348;2023-04-29T10:30:57;11.70;99.90
18191;DHT22;47004;51.366;12.348;2023-04-29T10:33:01;11.80;99.90
18191;DHT22;47004;51.366;12.348;2023-04-29T10:35:06;11.80;99.90
18191;DHT22;47004;51.366;12.348;2023-04-29T10:37:10;11.80;99.90
18191;DHT22;47004;51.366;12.348;2023-04-29T10:39:20;11.80;99.90
18191;DHT22;47004;51.366;12.348;2023-04-29T10:41:26;11.80;99.90
18191;DHT22;47004;51.366;12.348;2023-04-29T10:43:29;11.80;99.90
18191;DHT22;47004;51.366;12.348;2023-04-29T10:45:32;11.70;99.90
18191;DHT22;47004;51.366;12.348;2023-04-29T10:47:35;11.70;99.90
18191;DHT22;47004;51.366;12.348;2023-04-29T10:49:37;11.70;99.90
18191;DHT22;47004;51.366;12.348;2023-04-29T10:51:41;11.70;99.90
18191;DHT22;47004;51.366;12.348;2023-04-29T10:54:00;11.60;99.90
18191;DHT22;47004;51.366;12.348;2023-04-29T10:56:07;11.60;99.90
18191;DHT22;47004;51.366;12.348;2023-04-29T10:58:37;11.50;99.90
18191;DHT22;47004;51.366;12.348;2023-04-29T11:00:42;11.50;99.90
18191;DHT22;47004;51.366;12.348;2023-04-29T11:02:44;11.50;99.90
18191;DHT22;47004;51.366;12.348;2023-04-29T11:05:08;11.40;99.90
18191;DHT22;47004;51.366;12.348;2023-04-29T11:07:26;11.40;99.90
18191;DHT22;47004;51.366;12.348;2023-04-29T11:09:29;11.50;99.90
18191;DHT22;47004;51.366;12.348;2023-04-29T11:11:44;11.50;99.90
18191;DHT22;47004;51.366;12.348;2023-04-29T11:13:47;11.40;99.90
18191;DHT22;47004;51.366;12.348;2023-04-29T11:15:50;11.50;99.90
18191;DHT22;47004;51.366;12.348;2023-04-29T11:17:52;11.50;99.90
18191;DHT22;47004;51.366;12.348;2023-04-29T11:20:00;11.50;99.90
18191;DHT22;47004;51.366;12.348;2023-04-29T11:22:24;11.40;99.90
18191;DHT22;47004;51.366;12.348;2023-04-29T11:24:26;11.50;99.90
18191;DHT22;47004;51.366;12.348;2023-04-29T11:26:29;11.50;99.90
18191;DHT22;47004;51.366;12.348;2023-04-29T11:28:32;11.50;99.90
18191;DHT22;47004;51.366;12.348;2023-04-29T11:30:36;11.60;99.90
18191;DHT22;47004;51.366;12.348;2023-04-29T11:32:40;11.70;99.90
18191;DHT22;47004;51.366;12.348;2023-04-29T11:34:42;11.70;99.90
18191;DHT22;47004;51.366;12.348;2023-04-29T11:36:44;11.80;99.90
18191;DHT22;47004;51.366;12.348;2023-04-29T11:38:46;11.80;99.90
18191;DHT22;47004;51.366;12.348;2023-04-29T11:40:48;11.80;99.90
18191;DHT22;47004;51.366;12.348;2023-04-29T11:42:50;11.80;99.90
18191;DHT22;47004;51.366;12.348;2023-04-29T11:44:53;11.80;99.90
18191;DHT22;47004;51.366;12.348;2023-04-29T11:47:01;11.80;99.90
18191;DHT22;47004;51.366;12.348;2023-04-29T11:49:03;11.80;99.90
18191;DHT22;47004;51.366;12.348;2023-04-29T11:51:05;11.80;99.90
18191;DHT22;47004;51.366;12.348;2023-04-29T11:53:07;11.80;99.90
18191;DHT22;47004;51.366;12.348;2023-04-29T11:55:10;11.80;99.90
18191;DHT22;47004;51.366;12.348;2023-04-29T11:57:12;11.80;99.90
18191;DHT22;47004;51.366;12.348;2023-04-29T11:59:14;11.80;99.90
18191;DHT22;47004;51.366;12.348;2023-04-29T12:01:19;11.80;99.90
18191;DHT22;47004;51.366;12.348;2023-04-29T12:03:22;11.70;99.90
18191;DHT22;47004;51.366;12.348;2023-04-29T12:05:25;11.70;99.90
18191;DHT22;47004;51.366;12.348;2023-04-29T12:07:27;11.70;99.90
18191;DHT22;47004;51.366;12.348;2023-04-29T12:09:29;11.70;99.90
18191;DHT22;47004;51.366;12.348;2023-04-29T12:11:42;11.70;99.90
18191;DHT22;47004;51.366;12.348;2023-04-29T12:13:44;11.70;99.90
18191;DHT22;47004;51.366;12.348;2023-04-29T12:15:47;11.80;99.90
18191;DHT22;47004;51.366;12.348;2023-04-29T12:17:49;11.80;99.90
18191;DHT22;47004;51.366;12.348;2023-04-29T12:19:53;11.80;99.90
18191;DHT22;47004;51.366;12.348;2023-04-29T12:21:57;11.90;99.90
18191;DHT22;47004;51.366;12.348;2023-04-29T12:24:02;11.90;99.90
18191;DHT22;47004;51.366;12.348;2023-04-29T12:26:04;12.00;99.90
18191;DHT22;47004;51.366;12.348;2023-04-29T12:28:11;12.10;99.90
18191;DHT22;47004;51.366;12.348;2023-04-29T12:30:13;12.20;99.90
18191;DHT22;47004;51.366;12.348;2023-04-29T12:32:16;12.20;99.90
18191;DHT22;47004;51.366;12.348;2023-04-29T12:34:24;12.30;99.90
18191;DHT22;47004;51.366;12.348;2023-04-29T12:36:27;12.40;99.90
18191;DHT22;47004;51.366;12.348;2023-04-29T12:38:30;12.50;99.90
18191;DHT22;47004;51.366;12.348;2023-04-29T12:40:33;12.50;99.90
18191;DHT22;47004;51.366;12.348;2023-04-29T12:42:35;12.50;99.90
18191;DHT22;47004;51.366;12.348;2023-04-29T12:44:36;12.60;99.90
18191;DHT22;47004;51.366;12.348;2023-04-29T12:46:40;12.80;99.90
18191;DHT22;47004;51.366;12.348;2023-04-29T12:48:42;12.90;99.90